createdAt,value
2023-01-21T00:01:09.154Z,71.10
2023-01-21T00:03:54.459Z,71.00
2023-01-21T00:06:42.034Z,71.00
2023-01-21T00:09:29.851Z,70.80
2023-01-21T00:12:15.596Z,71.00
2023-01-21T00:15:01.736Z,70.90
2023-01-21T00:17:49.584Z,70.60
2023-01-21T00:20:35.080Z,70.70
2023-01-21T00:23:23.417Z,71.20
2023-01-21T00:26:12.777Z,71.10
2023-01-21T00:28:58.675Z,71.30
2023-01-21T00:31:46.384Z,71.20
2023-01-21T00:34:32.530Z,71.10
2023-01-21T00:37:22.740Z,71.00
2023-01-21T00:40:08.622Z,71.10
2023-01-21T00:42:53.919Z,71.20
2023-01-21T00:45:41.499Z,71.50
2023-01-21T00:48:28.578Z,71.70
2023-01-21T00:51:16.828Z,71.80
2023-01-21T00:54:04.836Z,72.20
2023-01-21T00:56:50.850Z,72.20
2023-01-21T00:59:36.606Z,72.70
2023-01-21T01:02:22.278Z,72.50
2023-01-21T01:05:08.362Z,72.30
2023-01-21T01:07:56.613Z,72.30
2023-01-21T01:10:42.436Z,72.60
2023-01-21T01:13:28.316Z,72.70
2023-01-21T01:16:16.433Z,73.20
2023-01-21T01:19:06.743Z,73.10
2023-01-21T01:21:52.250Z,73.30
2023-01-21T01:24:37.693Z,73.50
2023-01-21T01:27:23.976Z,73.30
2023-01-21T01:30:10.379Z,73.30
2023-01-21T01:32:55.671Z,73.10
2023-01-21T01:35:42.033Z,73.00
2023-01-21T01:38:27.209Z,72.10
2023-01-21T01:41:20.686Z,71.70
2023-01-21T01:44:45.214Z,71.80
2023-01-21T01:47:58.216Z,71.50
2023-01-21T01:50:44.494Z,71.00
2023-01-21T01:53:32.201Z,71.00
2023-01-21T01:56:17.899Z,70.50
2023-01-21T01:59:05.661Z,70.80
2023-01-21T02:01:51.234Z,70.50
2023-01-21T02:04:44.568Z,70.50
2023-01-21T02:07:39.246Z,70.70
2023-01-21T02:10:27.651Z,70.70
2023-01-21T02:13:16.294Z,70.50
2023-01-21T02:16:21.455Z,70.40
2023-01-21T02:19:38.011Z,70.50
2023-01-21T02:22:50.765Z,71.00
2023-01-21T02:25:54.955Z,70.90
2023-01-21T02:28:46.865Z,71.00
2023-01-21T02:32:29.826Z,70.70
2023-01-21T02:35:34.200Z,70.40
2023-01-21T02:38:52.520Z,70.50
2023-01-21T02:41:55.859Z,70.40
2023-01-21T02:44:57.547Z,70.30
2023-01-21T02:48:10.560Z,70.20
2023-01-21T02:50:56.836Z,70.40
2023-01-21T02:53:42.427Z,70.20
2023-01-21T02:56:28.157Z,70.00
2023-01-21T02:59:14.129Z,70.30
2023-01-21T03:02:19.857Z,70.00
2023-01-21T03:05:35.155Z,70.30
2023-01-21T03:08:47.625Z,70.30
2023-01-21T03:11:34.061Z,70.50
2023-01-21T03:14:44.241Z,70.30
2023-01-21T03:17:48.629Z,70.90
2023-01-21T03:20:49.359Z,70.30
2023-01-21T03:23:38.916Z,70.20
2023-01-21T03:26:31.191Z,70.30
2023-01-21T03:29:23.360Z,69.70
2023-01-21T03:32:13.796Z,69.80
2023-01-21T03:35:06.019Z,69.80
2023-01-21T03:38:09.897Z,69.30
2023-01-21T03:41:22.964Z,69.30
2023-01-21T03:44:08.379Z,69.50
2023-01-21T03:47:01.701Z,69.40
2023-01-21T03:49:57.967Z,69.30
2023-01-21T03:52:44.860Z,69.40
2023-01-21T03:55:30.425Z,69.70
2023-01-21T03:58:15.559Z,69.80
2023-01-21T04:01:01.235Z,70.10
2023-01-21T04:03:46.810Z,70.00
2023-01-21T04:06:33.159Z,70.10
2023-01-21T04:09:20.955Z,70.20
2023-01-21T04:12:06.458Z,70.30
2023-01-21T04:14:51.884Z,70.40
2023-01-21T04:17:37.155Z,70.30
2023-01-21T04:20:24.798Z,70.40
2023-01-21T04:23:10.086Z,70.50
2023-01-21T04:25:55.613Z,70.80
2023-01-21T04:28:42.114Z,71.00
2023-01-21T04:31:27.656Z,71.10
2023-01-21T04:34:13.336Z,71.00
2023-01-21T04:36:58.792Z,71.00
2023-01-21T04:39:44.183Z,70.90
2023-01-21T04:42:34.422Z,70.70
2023-01-21T04:45:22.187Z,70.90
2023-01-21T04:48:07.942Z,71.00
2023-01-21T04:50:53.160Z,71.20
2023-01-21T04:53:41.306Z,71.70
2023-01-21T04:56:29.076Z,72.10
2023-01-21T04:59:17.196Z,72.60
2023-01-21T05:02:02.517Z,72.70
2023-01-21T05:04:48.047Z,72.90
2023-01-21T05:07:33.527Z,73.10
2023-01-21T05:10:19.315Z,73.30
2023-01-21T05:13:05.715Z,73.90
2023-01-21T05:15:51.330Z,73.50
2023-01-21T05:18:40.761Z,73.50
2023-01-21T05:21:26.163Z,73.60
2023-01-21T05:24:11.719Z,73.60
2023-01-21T05:26:56.962Z,73.30
2023-01-21T05:29:44.614Z,73.20
2023-01-21T05:32:29.995Z,72.80
2023-01-21T05:35:19.017Z,72.50
2023-01-21T05:38:06.681Z,72.20
2023-01-21T05:40:57.122Z,72.20
2023-01-21T05:43:44.769Z,71.90
2023-01-21T05:46:29.968Z,72.00
2023-01-21T05:49:15.510Z,71.70
2023-01-21T05:52:01.849Z,71.70
2023-01-21T05:55:00.977Z,71.60
2023-01-21T05:57:47.799Z,71.30
2023-01-21T06:00:36.105Z,71.40
2023-01-21T06:03:21.538Z,71.40
2023-01-21T06:06:08.847Z,71.10
2023-01-21T06:08:54.908Z,71.10
2023-01-21T06:11:42.067Z,70.90
2023-01-21T06:14:27.595Z,70.80
2023-01-21T06:17:18.291Z,70.90
2023-01-21T06:20:03.983Z,70.90
2023-01-21T06:22:49.570Z,71.00
2023-01-21T06:25:35.483Z,71.90
2023-01-21T06:28:21.183Z,71.50
2023-01-21T06:31:08.985Z,71.40
2023-01-21T06:33:54.858Z,71.10
2023-01-21T06:36:42.708Z,71.30
2023-01-21T06:39:32.759Z,71.20
2023-01-21T06:42:18.802Z,71.20
2023-01-21T06:45:04.908Z,71.20
2023-01-21T06:47:50.302Z,70.80
2023-01-21T06:50:36.235Z,70.80
2023-01-21T06:53:23.921Z,70.80
2023-01-21T06:56:09.139Z,70.70
2023-01-21T06:58:55.232Z,70.70
2023-01-21T07:01:40.774Z,70.70
2023-01-21T07:04:30.326Z,70.60
2023-01-21T07:07:15.592Z,70.60
2023-01-21T07:10:03.241Z,70.70
2023-01-21T07:12:49.028Z,70.80
2023-01-21T07:15:37.143Z,70.90
2023-01-21T07:18:22.650Z,71.30
2023-01-21T07:21:08.088Z,71.20
2023-01-21T07:23:56.706Z,71.00
2023-01-21T07:26:44.896Z,71.10
2023-01-21T07:29:33.260Z,71.00
2023-01-21T07:32:19.010Z,70.90
2023-01-21T07:35:04.653Z,70.90
2023-01-21T07:37:49.907Z,70.60
2023-01-21T07:40:35.718Z,70.50
2023-01-21T07:43:21.389Z,70.10
2023-01-21T07:46:06.784Z,69.90
2023-01-21T07:48:53.598Z,70.00
2023-01-21T07:51:41.383Z,70.10
2023-01-21T07:54:28.828Z,70.00
2023-01-21T07:57:17.199Z,70.10
2023-01-21T08:00:03.144Z,70.00
2023-01-21T08:02:52.066Z,69.80
2023-01-21T08:05:37.791Z,69.60
2023-01-21T08:08:23.123Z,69.50
2023-01-21T08:11:09.158Z,69.20
2023-01-21T08:13:54.556Z,69.00
2023-01-21T08:16:41.554Z,68.80
2023-01-21T08:19:29.638Z,69.00
2023-01-21T08:22:15.016Z,68.80
2023-01-21T08:25:00.543Z,69.10
2023-01-21T08:27:48.805Z,68.80
2023-01-21T08:30:34.420Z,68.30
2023-01-21T08:33:22.732Z,68.50
2023-01-21T08:36:10.034Z,68.00
2023-01-21T08:38:58.764Z,68.10
2023-01-21T08:41:46.077Z,67.90
2023-01-21T08:44:31.837Z,67.60
2023-01-21T08:47:18.343Z,67.80
2023-01-21T08:50:03.763Z,67.90
2023-01-21T08:52:58.975Z,68.00
2023-01-21T08:55:44.432Z,67.90
2023-01-21T08:58:30.952Z,67.50
2023-01-21T09:01:16.434Z,67.60
2023-01-21T09:04:04.843Z,67.70
2023-01-21T09:06:51.299Z,67.60
2023-01-21T09:09:36.570Z,67.70
2023-01-21T09:12:22.307Z,67.30
2023-01-21T09:15:08.759Z,67.10
2023-01-21T09:17:56.851Z,67.00
2023-01-21T09:20:42.599Z,66.50
2023-01-21T09:23:28.250Z,66.50
2023-01-21T09:26:17.089Z,66.40
2023-01-21T09:29:02.927Z,66.60
2023-01-21T09:31:48.209Z,66.50
2023-01-21T09:34:35.844Z,66.50
2023-01-21T09:37:21.570Z,66.50
2023-01-21T09:40:09.209Z,66.40
2023-01-21T09:42:54.944Z,66.50
2023-01-21T09:45:44.002Z,66.30
2023-01-21T09:48:36.788Z,65.60
2023-01-21T09:51:43.032Z,66.10
2023-01-21T09:54:32.041Z,65.90
2023-01-21T09:57:17.417Z,65.50
2023-01-21T10:00:16.743Z,65.50
2023-01-21T10:03:09.064Z,64.80
2023-01-21T10:06:09.416Z,64.10
2023-01-21T10:09:24.870Z,64.20
2023-01-21T10:12:35.682Z,63.90
2023-01-21T10:15:49.458Z,63.60
2023-01-21T10:18:41.489Z,63.60
2023-01-21T10:21:40.585Z,63.30
2023-01-21T10:24:33.180Z,63.30
2023-01-21T10:27:23.886Z,63.10
2023-01-21T10:30:23.052Z,63.00
2023-01-21T10:33:26.951Z,63.30
2023-01-21T10:36:48.850Z,63.10
2023-01-21T10:39:56.357Z,63.30
2023-01-21T10:43:01.768Z,63.30
2023-01-21T10:46:26.730Z,63.30
2023-01-21T10:49:41.599Z,63.50
2023-01-21T10:52:26.816Z,63.50
2023-01-21T10:55:37.571Z,63.60
2023-01-21T10:58:54.278Z,63.30
2023-01-21T11:01:47.252Z,63.30
2023-01-21T11:04:35.751Z,63.20
2023-01-21T11:07:22.936Z,63.20
2023-01-21T11:10:09.394Z,63.40
2023-01-21T11:12:57.412Z,62.80
2023-01-21T11:15:51.054Z,62.50
2023-01-21T11:18:39.782Z,63.10
2023-01-21T11:21:28.482Z,63.50
2023-01-21T11:24:25.150Z,63.50
2023-01-21T11:27:35.785Z,63.90
2023-01-21T11:30:44.554Z,63.50
2023-01-21T11:33:36.736Z,63.20
2023-01-21T11:36:22.590Z,63.20
2023-01-21T11:39:13.028Z,62.80
2023-01-21T11:42:08.069Z,62.60
2023-01-21T11:45:04.385Z,62.20
2023-01-21T11:47:51.697Z,62.00
2023-01-21T11:50:40.761Z,61.80
2023-01-21T11:53:26.929Z,61.30
2023-01-21T11:56:12.958Z,61.40
2023-01-21T11:59:00.793Z,61.30
2023-01-21T12:01:57.214Z,61.00
2023-01-21T12:04:57.257Z,61.00
2023-01-21T12:07:45.633Z,61.30
2023-01-21T12:10:39.483Z,61.30
2023-01-21T12:13:44.460Z,60.70
2023-01-21T12:16:45.548Z,60.50
2023-01-21T12:19:52.744Z,59.60
2023-01-21T12:22:49.995Z,60.00
2023-01-21T12:25:50.985Z,58.60
2023-01-21T12:28:51.779Z,58.20
2023-01-21T12:32:02.230Z,58.00
2023-01-21T12:35:43.407Z,58.50
2023-01-21T12:38:38.497Z,57.50
2023-01-21T12:41:28.589Z,57.10
2023-01-21T12:44:18.420Z,56.50
2023-01-21T12:47:12.686Z,56.30
2023-01-21T12:50:41.314Z,56.20
2023-01-21T12:53:44.612Z,56.40
2023-01-21T12:56:37.625Z,56.40
2023-01-21T12:59:47.500Z,56.10
2023-01-21T13:03:01.931Z,56.00
2023-01-21T13:05:57.760Z,56.30
2023-01-21T13:09:07.704Z,56.30
2023-01-21T13:11:58.120Z,56.30
2023-01-21T13:14:48.535Z,56.30
2023-01-21T13:17:35.415Z,56.10
2023-01-21T13:20:22.635Z,56.30
2023-01-21T13:23:45.815Z,56.00
2023-01-21T13:26:41.986Z,56.30
2023-01-21T13:29:45.224Z,56.10
2023-01-21T13:32:49.357Z,56.20
2023-01-21T13:36:00.572Z,56.60
2023-01-21T13:39:03.323Z,56.70
2023-01-21T13:42:00.763Z,57.10
2023-01-21T13:45:07.637Z,57.30
2023-01-21T13:48:18.427Z,57.30
2023-01-21T13:51:27.774Z,57.80
2023-01-21T13:54:35.199Z,58.00
2023-01-21T13:57:31.720Z,57.80
2023-01-21T14:01:00.482Z,57.70
2023-01-21T14:04:21.630Z,58.00
2023-01-21T14:07:35.541Z,57.90
2023-01-21T14:10:28.792Z,57.80
2023-01-21T14:13:33.158Z,57.80
2023-01-21T14:16:24.286Z,57.90
2023-01-21T14:19:15.860Z,58.10
2023-01-21T14:22:23.781Z,58.30
2023-01-21T14:25:24.598Z,58.60
2023-01-21T14:28:34.335Z,58.80
2023-01-21T14:31:31.236Z,58.20
2023-01-21T14:34:26.589Z,58.70
2023-01-21T14:37:17.267Z,58.30
2023-01-21T14:40:18.222Z,57.60
2023-01-21T14:43:03.844Z,57.70
2023-01-21T14:45:55.476Z,57.60
2023-01-21T14:48:42.485Z,57.10
2023-01-21T14:51:31.546Z,56.60
2023-01-21T14:54:23.708Z,56.30
2023-01-21T14:57:33.117Z,56.20
2023-01-21T15:00:23.795Z,56.10
2023-01-21T15:03:19.485Z,55.90
2023-01-21T15:06:18.039Z,56.00
2023-01-21T15:09:05.535Z,56.60
2023-01-21T15:11:56.481Z,57.60
2023-01-21T15:14:42.529Z,61.20
2023-01-21T15:18:06.992Z,62.40
2023-01-21T15:20:58.615Z,62.40
2023-01-21T15:23:44.150Z,61.80
2023-01-21T15:26:33.320Z,62.40
2023-01-21T15:29:34.474Z,64.90
2023-01-21T15:32:40.331Z,67.30
2023-01-21T15:35:37.081Z,68.50
2023-01-21T15:38:24.965Z,70.40
2023-01-21T15:41:27.131Z,71.40
2023-01-21T15:44:25.139Z,72.50
2023-01-21T15:47:22.502Z,73.90
2023-01-21T15:50:46.211Z,75.20
2023-01-21T15:53:45.144Z,76.60
2023-01-21T15:57:05.687Z,78.30
2023-01-21T16:00:15.659Z,81.60
2023-01-21T16:03:11.263Z,83.10
2023-01-21T16:06:10.215Z,83.20
2023-01-21T16:09:03.793Z,83.80
2023-01-21T16:12:18.289Z,84.40
2023-01-21T16:15:37.813Z,85.90
2023-01-21T16:18:59.281Z,86.40
2023-01-21T16:21:48.856Z,87.00
2023-01-21T16:24:47.555Z,88.80
2023-01-21T16:27:33.292Z,90.10
2023-01-21T16:30:37.224Z,90.80
2023-01-21T16:33:25.121Z,91.60
2023-01-21T16:36:17.173Z,91.80
2023-01-21T16:39:07.749Z,92.00
2023-01-21T16:42:04.802Z,92.60
2023-01-21T16:44:51.010Z,92.70
2023-01-21T16:47:39.316Z,93.10
2023-01-21T16:50:28.441Z,93.20
2023-01-21T16:53:17.708Z,93.00
2023-01-21T16:56:03.167Z,92.70
2023-01-21T16:58:48.813Z,93.70
2023-01-21T17:01:37.638Z,93.70
2023-01-21T17:04:23.941Z,93.70
2023-01-21T17:07:42.298Z,93.80
2023-01-21T17:10:35.123Z,94.20
2023-01-21T17:13:23.157Z,94.20
2023-01-21T17:16:19.263Z,94.00
2023-01-21T17:19:18.538Z,94.50
2023-01-21T17:22:19.432Z,94.50
2023-01-21T17:25:20.004Z,94.70
2023-01-21T17:28:45.372Z,94.60
2023-01-21T17:31:40.140Z,94.80
2023-01-21T17:34:29.239Z,94.70
2023-01-21T17:37:59.647Z,94.60
2023-01-21T17:41:02.147Z,94.70
2023-01-21T17:43:49.800Z,94.80
2023-01-21T17:46:35.490Z,94.90
2023-01-21T17:49:25.732Z,95.10
2023-01-21T17:52:19.823Z,95.30
2023-01-21T17:55:33.905Z,95.50
2023-01-21T17:58:32.196Z,95.60
2023-01-21T18:01:20.067Z,95.60
2023-01-21T18:04:05.502Z,95.70
2023-01-21T18:06:53.316Z,95.60
2023-01-21T18:09:38.649Z,95.60
2023-01-21T18:12:24.196Z,95.70
2023-01-21T18:15:13.617Z,95.30
2023-01-21T18:18:02.877Z,95.40
2023-01-21T18:20:48.669Z,94.90
2023-01-21T18:23:36.477Z,94.80
2023-01-21T18:26:35.741Z,95.20
2023-01-21T18:29:30.388Z,94.80
2023-01-21T18:32:17.645Z,94.90
2023-01-21T18:35:03.168Z,94.80
2023-01-21T18:37:48.802Z,94.80
2023-01-21T18:40:34.138Z,95.00
2023-01-21T18:43:19.737Z,95.00
2023-01-21T18:46:11.627Z,95.10
2023-01-21T18:48:57.535Z,95.20
2023-01-21T18:51:44.029Z,95.10
2023-01-21T18:54:29.873Z,95.20
2023-01-21T18:57:18.858Z,95.10
2023-01-21T19:00:15.181Z,95.50
2023-01-21T19:03:01.612Z,95.80
2023-01-21T19:05:47.788Z,95.80
2023-01-21T19:08:33.787Z,96.10
2023-01-21T19:11:19.799Z,96.30
2023-01-21T19:14:08.162Z,96.50
2023-01-21T19:16:53.789Z,96.70
2023-01-21T19:19:39.796Z,96.80
2023-01-21T19:22:25.029Z,97.30
2023-01-21T19:25:10.913Z,97.30
2023-01-21T19:27:57.213Z,97.40
2023-01-21T19:30:46.620Z,97.40
2023-01-21T19:33:32.266Z,97.30
2023-01-21T19:36:21.942Z,97.30
2023-01-21T19:39:16.553Z,97.30
2023-01-21T19:42:08.441Z,97.20
2023-01-21T19:44:56.945Z,97.40
2023-01-21T19:47:47.254Z,97.20
2023-01-21T19:50:35.074Z,97.30
2023-01-21T19:53:22.352Z,97.20
2023-01-21T19:56:13.867Z,97.20
2023-01-21T19:59:00.911Z,97.20
2023-01-21T20:01:50.878Z,96.90
2023-01-21T20:04:38.557Z,96.90
2023-01-21T20:07:24.287Z,96.90
2023-01-21T20:10:26.784Z,96.80
2023-01-21T20:13:13.368Z,96.70
2023-01-21T20:16:07.400Z,96.50
2023-01-21T20:18:56.202Z,96.20
2023-01-21T20:21:59.649Z,96.20
2023-01-21T20:24:46.430Z,96.00
2023-01-21T20:27:32.691Z,95.90
2023-01-21T20:30:21.407Z,95.60
2023-01-21T20:33:10.839Z,95.40
2023-01-21T20:35:57.540Z,95.30
2023-01-21T20:38:42.726Z,95.10
2023-01-21T20:41:28.203Z,95.10
2023-01-21T20:44:15.726Z,94.70
2023-01-21T20:47:01.383Z,94.90
2023-01-21T20:49:47.227Z,94.40
2023-01-21T20:52:35.241Z,94.10
2023-01-21T20:55:24.439Z,93.90
2023-01-21T20:58:13.619Z,93.80
2023-01-21T21:00:59.535Z,93.60
2023-01-21T21:03:48.944Z,93.60
2023-01-21T21:06:34.236Z,93.60
2023-01-21T21:09:22.261Z,93.30
2023-01-21T21:12:08.037Z,93.00
2023-01-21T21:14:53.604Z,93.10
2023-01-21T21:17:39.261Z,92.80
2023-01-21T21:20:28.296Z,92.80
2023-01-21T21:23:18.630Z,92.60
2023-01-21T21:26:04.740Z,92.50
2023-01-21T21:29:02.635Z,92.20
2023-01-21T21:31:48.556Z,92.00
2023-01-21T21:34:34.532Z,91.70
2023-01-21T21:37:19.770Z,91.50
2023-01-21T21:40:08.012Z,91.40
2023-01-21T21:43:12.597Z,91.30
2023-01-21T21:46:17.568Z,91.00
2023-01-21T21:49:05.502Z,90.60
2023-01-21T21:51:51.055Z,90.40
2023-01-21T21:54:37.106Z,90.50
2023-01-21T21:57:22.587Z,90.40
2023-01-21T22:00:09.475Z,90.20
2023-01-21T22:02:59.886Z,90.10
2023-01-21T22:05:52.518Z,89.90
2023-01-21T22:08:42.286Z,89.60
2023-01-21T22:11:29.168Z,89.40
2023-01-21T22:14:14.923Z,89.60
2023-01-21T22:17:00.359Z,89.30
2023-01-21T22:19:45.906Z,89.00
2023-01-21T22:22:31.091Z,88.70
2023-01-21T22:25:17.034Z,88.80
2023-01-21T22:28:05.030Z,88.60
2023-01-21T22:30:50.567Z,88.80
2023-01-21T22:33:37.415Z,88.60
2023-01-21T22:36:25.434Z,88.60
2023-01-21T22:39:12.372Z,88.50
2023-01-21T22:42:05.043Z,88.60
2023-01-21T22:44:50.687Z,88.60
2023-01-21T22:47:36.186Z,88.90
2023-01-21T22:50:21.482Z,88.30
2023-01-21T22:53:07.171Z,88.30
2023-01-21T22:55:56.723Z,88.40
2023-01-21T22:58:42.725Z,88.40
2023-01-21T23:01:32.081Z,88.80
2023-01-21T23:04:17.804Z,87.50
2023-01-21T23:07:03.404Z,87.20
2023-01-21T23:09:49.069Z,87.60
2023-01-21T23:12:35.156Z,86.90
2023-01-21T23:15:22.075Z,86.90
2023-01-21T23:18:07.597Z,86.80
2023-01-21T23:20:52.922Z,86.30
2023-01-21T23:23:38.817Z,86.70
2023-01-21T23:26:27.434Z,86.20
2023-01-21T23:29:13.109Z,86.00
2023-01-21T23:32:01.007Z,86.00
2023-01-21T23:34:46.843Z,85.30
2023-01-21T23:37:32.396Z,85.20
2023-01-21T23:40:18.472Z,84.80
2023-01-21T23:43:04.102Z,84.80
2023-01-21T23:45:49.737Z,84.40
2023-01-21T23:48:35.353Z,84.80
2023-01-21T23:51:20.831Z,84.10
2023-01-21T23:54:06.584Z,84.00
2023-01-21T23:56:52.036Z,83.90
2023-01-21T23:59:38.297Z,83.60
